sensor_id;sensor_type;location;lat;lon;timestamp;pressure;altitude;pressure_sealevel;temperature;humidity
40460;BME280;26164;51.138;16.952;2023-01-28T00:00:33;78381.47;;;-146.39;100.00
40460;BME280;26164;51.138;16.952;2023-01-28T00:03:19;78385.56;;;-146.39;100.00
40460;BME280;26164;51.138;16.952;2023-01-28T00:05:45;78389.63;;;-146.39;100.00
40460;BME280;26164;51.138;16.952;2023-01-28T00:08:11;78389.63;;;-146.39;100.00
40460;BME280;26164;51.138;16.952;2023-01-28T00:10:40;78389.63;;;-146.39;100.00
40460;BME280;26164;51.138;16.952;2023-01-28T00:13:06;78377.38;;;-146.39;100.00
40460;BME280;26164;51.138;16.952;2023-01-28T00:15:33;78385.56;;;-146.39;100.00
40460;BME280;26164;51.138;16.952;2023-01-28T00:17:59;78385.56;;;-146.39;100.00
40460;BME280;26164;51.138;16.952;2023-01-28T00:20:25;78389.63;;;-146.39;100.00
40460;BME280;26164;51.138;16.952;2023-01-28T00:22:50;78385.56;;;-146.39;100.00
40460;BME280;26164;51.138;16.952;2023-01-28T00:25:16;78393.72;;;-146.39;100.00
40460;BME280;26164;51.138;16.952;2023-01-28T00:27:42;78381.47;;;-146.39;100.00
40460;BME280;26164;51.138;16.952;2023-01-28T00:30:08;78381.47;;;-146.39;100.00
40460;BME280;26164;51.138;16.952;2023-01-28T00:32:35;78377.38;;;-146.39;100.00
40460;BME280;26164;51.138;16.952;2023-01-28T00:35:02;78373.28;;;-146.39;100.00
40460;BME280;26164;51.138;16.952;2023-01-28T00:37:28;78373.28;;;-146.39;100.00
40460;BME280;26164;51.138;16.952;2023-01-28T00:39:53;78377.38;;;-146.39;100.00
40460;BME280;26164;51.138;16.952;2023-01-28T00:42:20;78373.28;;;-146.39;100.00
40460;BME280;26164;51.138;16.952;2023-01-28T00:44:48;78369.22;;;-146.39;100.00
40460;BME280;26164;51.138;16.952;2023-01-28T00:47:15;78361.03;;;-146.39;100.00
40460;BME280;26164;51.138;16.952;2023-01-28T00:49:40;78352.88;;;-146.39;100.00
40460;BME280;26164;51.138;16.952;2023-01-28T00:52:08;78352.88;;;-146.39;100.00
40460;BME280;26164;51.138;16.952;2023-01-28T00:54:36;78359.00;;;-146.39;100.00
40460;BME280;26164;51.138;16.952;2023-01-28T00:57:02;78352.88;;;-146.39;100.00
40460;BME280;26164;51.138;16.952;2023-01-28T00:59:27;78342.66;;;-146.39;100.00
40460;BME280;26164;51.138;16.952;2023-01-28T01:01:54;78348.78;;;-146.39;100.00
40460;BME280;26164;51.138;16.952;2023-01-28T01:04:37;78340.63;;;-146.39;100.00
40460;BME280;26164;51.138;16.952;2023-01-28T01:07:03;78342.66;;;-146.39;100.00
40460;BME280;26164;51.138;16.952;2023-01-28T01:09:30;78356.94;;;-146.39;100.00
40460;BME280;26164;51.138;16.952;2023-01-28T01:11:56;78365.13;;;-146.39;100.00
40460;BME280;26164;51.138;16.952;2023-01-28T01:14:21;78377.38;;;-146.39;100.00
40460;BME280;26164;51.138;16.952;2023-01-28T01:16:47;78393.72;;;-146.39;100.00
40460;BME280;26164;51.138;16.952;2023-01-28T01:19:13;78393.72;;;-146.39;100.00
40460;BME280;26164;51.138;16.952;2023-01-28T01:21:39;78422.31;;;-146.39;100.00
40460;BME280;26164;51.138;16.952;2023-01-28T01:24:05;78405.97;;;-146.39;100.00
40460;BME280;26164;51.138;16.952;2023-01-28T01:26:31;78416.19;;;-146.39;100.00
40460;BME280;26164;51.138;16.952;2023-01-28T01:28:57;78418.22;;;-146.39;100.00
40460;BME280;26164;51.138;16.952;2023-01-28T01:31:22;78426.41;;;-146.39;100.00
40460;BME280;26164;51.138;16.952;2023-01-28T01:33:50;78424.34;;;-146.39;100.00
40460;BME280;26164;51.138;16.952;2023-01-28T01:36:17;78432.53;;;-146.39;100.00
40460;BME280;26164;51.138;16.952;2023-01-28T01:38:44;78446.81;;;-146.39;100.00
40460;BME280;26164;51.138;16.952;2023-01-28T01:41:22;78440.69;;;-146.39;100.00
40460;BME280;26164;51.138;16.952;2023-01-28T01:43:52;78467.25;;;-146.39;100.00
40460;BME280;26164;51.138;16.952;2023-01-28T01:46:27;78461.13;;;-146.39;100.00
40460;BME280;26164;51.138;16.952;2023-01-28T01:48:56;78461.13;;;-146.39;100.00
40460;BME280;26164;51.138;16.952;2023-01-28T01:51:29;78457.03;;;-146.39;100.00
40460;BME280;26164;51.138;16.952;2023-01-28T01:53:58;78471.34;;;-146.39;100.00
40460;BME280;26164;51.138;16.952;2023-01-28T01:56:30;78471.34;;;-146.39;100.00
40460;BME280;26164;51.138;16.952;2023-01-28T01:58:58;78475.41;;;-146.39;100.00
40460;BME280;26164;51.138;16.952;2023-01-28T02:01:28;78475.41;;;-146.39;100.00
40460;BME280;26164;51.138;16.952;2023-01-28T02:04:11;78475.41;;;-146.39;100.00
40460;BME280;26164;51.138;16.952;2023-01-28T02:06:41;78477.47;;;-146.39;100.00
40460;BME280;26164;51.138;16.952;2023-01-28T02:09:27;78483.59;;;-146.39;100.00
40460;BME280;26164;51.138;16.952;2023-01-28T02:11:55;78479.50;;;-146.39;100.00
40460;BME280;26164;51.138;16.952;2023-01-28T02:14:25;78487.66;;;-146.39;100.00
40460;BME280;26164;51.138;16.952;2023-01-28T02:16:53;78477.47;;;-146.39;100.00
40460;BME280;26164;51.138;16.952;2023-01-28T02:19:23;78499.94;;;-146.39;100.00
40460;BME280;26164;51.138;16.952;2023-01-28T02:27:14;78501.97;;;-146.39;100.00
40460;BME280;26164;51.138;16.952;2023-01-28T02:30:12;78495.84;;;-146.39;100.00
40460;BME280;26164;51.138;16.952;2023-01-28T02:33:10;78516.25;;;-146.39;100.00
40460;BME280;26164;51.138;16.952;2023-01-28T02:38:15;78516.25;;;-146.39;100.00
40460;BME280;26164;51.138;16.952;2023-01-28T02:40:45;78524.44;;;-146.39;100.00
40460;BME280;26164;51.138;16.952;2023-01-28T02:43:38;78528.53;;;-146.39;100.00
40460;BME280;26164;51.138;16.952;2023-01-28T02:52:22;78524.44;;;-146.39;100.00
40460;BME280;26164;51.138;16.952;2023-01-28T02:55:24;78536.69;;;-146.39;100.00
40460;BME280;26164;51.138;16.952;2023-01-28T02:58:01;78528.53;;;-146.39;100.00
40460;BME280;26164;51.138;16.952;2023-01-28T03:03:21;78542.81;;;-146.39;100.00
40460;BME280;26164;51.138;16.952;2023-01-28T03:06:03;78536.69;;;-146.39;100.00
40460;BME280;26164;51.138;16.952;2023-01-28T03:08:43;78538.72;;;-146.39;100.00
40460;BME280;26164;51.138;16.952;2023-01-28T03:11:31;78544.84;;;-146.39;100.00
40460;BME280;26164;51.138;16.952;2023-01-28T03:14:18;78548.94;;;-146.39;100.00
40460;BME280;26164;51.138;16.952;2023-01-28T03:17:04;78548.94;;;-146.39;100.00
40460;BME280;26164;51.138;16.952;2023-01-28T03:19:51;78557.13;;;-146.39;100.00
40460;BME280;26164;51.138;16.952;2023-01-28T03:22:40;78544.84;;;-146.39;100.00
40460;BME280;26164;51.138;16.952;2023-01-28T03:25:27;78551.00;;;-146.39;100.00
40460;BME280;26164;51.138;16.952;2023-01-28T03:28:16;78548.94;;;-146.39;100.00
40460;BME280;26164;51.138;16.952;2023-01-28T03:31:09;78553.03;;;-146.39;100.00
40460;BME280;26164;51.138;16.952;2023-01-28T03:33:57;78551.00;;;-146.39;100.00
40460;BME280;26164;51.138;16.952;2023-01-28T03:36:43;78553.03;;;-146.39;100.00
40460;BME280;26164;51.138;16.952;2023-01-28T03:39:37;78553.03;;;-146.39;100.00
40460;BME280;26164;51.138;16.952;2023-01-28T03:42:08;78557.13;;;-146.39;100.00
40460;BME280;26164;51.138;16.952;2023-01-28T03:44:41;78569.38;;;-146.39;100.00
40460;BME280;26164;51.138;16.952;2023-01-28T03:47:25;78565.28;;;-146.39;100.00
40460;BME280;26164;51.138;16.952;2023-01-28T03:49:53;78565.28;;;-146.39;100.00
40460;BME280;26164;51.138;16.952;2023-01-28T03:52:27;78563.25;;;-146.39;100.00
40460;BME280;26164;51.138;16.952;2023-01-28T03:55:02;78571.41;;;-146.39;100.00
40460;BME280;26164;51.138;16.952;2023-01-28T03:57:38;78563.25;;;-146.39;100.00
40460;BME280;26164;51.138;16.952;2023-01-28T04:00:05;78561.19;;;-146.39;100.00
40460;BME280;26164;51.138;16.952;2023-01-28T04:02:39;78565.28;;;-146.39;100.00
40460;BME280;26164;51.138;16.952;2023-01-28T04:05:08;78579.59;;;-146.39;100.00
40460;BME280;26164;51.138;16.952;2023-01-28T04:07:41;78577.53;;;-146.39;100.00
40460;BME280;26164;51.138;16.952;2023-01-28T04:10:17;78565.28;;;-146.39;100.00
40460;BME280;26164;51.138;16.952;2023-01-28T04:12:50;78575.50;;;-146.39;100.00
40460;BME280;26164;51.138;16.952;2023-01-28T04:15:19;78577.53;;;-146.39;100.00
40460;BME280;26164;51.138;16.952;2023-01-28T04:17:47;78571.41;;;-146.39;100.00
40460;BME280;26164;51.138;16.952;2023-01-28T04:20:20;78577.53;;;-146.39;100.00
40460;BME280;26164;51.138;16.952;2023-01-28T04:22:46;78581.63;;;-146.39;100.00
40460;BME280;26164;51.138;16.952;2023-01-28T04:25:13;78583.66;;;-146.39;100.00
40460;BME280;26164;51.138;16.952;2023-01-28T04:27:39;78587.75;;;-146.39;100.00
40460;BME280;26164;51.138;16.952;2023-01-28T04:30:15;78581.63;;;-146.39;100.00
40460;BME280;26164;51.138;16.952;2023-01-28T04:32:47;78585.72;;;-146.39;100.00
40460;BME280;26164;51.138;16.952;2023-01-28T04:35:41;78589.78;;;-146.39;100.00
40460;BME280;26164;51.138;16.952;2023-01-28T04:38:16;78593.88;;;-146.39;100.00
40460;BME280;26164;51.138;16.952;2023-01-28T04:41:02;78593.88;;;-146.39;100.00
40460;BME280;26164;51.138;16.952;2023-01-28T04:43:31;78593.88;;;-146.39;100.00
40460;BME280;26164;51.138;16.952;2023-01-28T04:46:17;78595.94;;;-146.39;100.00
40460;BME280;26164;51.138;16.952;2023-01-28T04:48:59;78593.88;;;-146.39;100.00
40460;BME280;26164;51.138;16.952;2023-01-28T04:51:38;78589.78;;;-146.39;100.00
40460;BME280;26164;51.138;16.952;2023-01-28T04:54:21;78602.06;;;-146.39;100.00
40460;BME280;26164;51.138;16.952;2023-01-28T04:56:49;78614.31;;;-146.39;100.00
40460;BME280;26164;51.138;16.952;2023-01-28T04:59:15;78608.19;;;-146.39;100.00
40460;BME280;26164;51.138;16.952;2023-01-28T05:01:42;78612.25;;;-146.39;100.00
40460;BME280;26164;51.138;16.952;2023-01-28T05:04:08;78614.31;;;-146.39;100.00
40460;BME280;26164;51.138;16.952;2023-01-28T05:06:37;78602.06;;;-146.39;100.00
40460;BME280;26164;51.138;16.952;2023-01-28T05:09:09;78610.22;;;-146.39;100.00
40460;BME280;26164;51.138;16.952;2023-01-28T05:11:35;78612.25;;;-146.39;100.00
40460;BME280;26164;51.138;16.952;2023-01-28T05:14:04;78604.09;;;-146.39;100.00
40460;BME280;26164;51.138;16.952;2023-01-28T05:16:39;78634.72;;;-146.39;100.00
40460;BME280;26164;51.138;16.952;2023-01-28T05:19:06;78618.38;;;-146.39;100.00
40460;BME280;26164;51.138;16.952;2023-01-28T05:21:36;78626.56;;;-146.39;100.00
40460;BME280;26164;51.138;16.952;2023-01-28T05:24:05;78624.53;;;-146.39;100.00
40460;BME280;26164;51.138;16.952;2023-01-28T05:26:32;78632.69;;;-146.39;100.00
40460;BME280;26164;51.138;16.952;2023-01-28T05:28:58;78630.66;;;-146.39;100.00
40460;BME280;26164;51.138;16.952;2023-01-28T05:31:25;78626.56;;;-146.39;100.00
40460;BME280;26164;51.138;16.952;2023-01-28T05:33:50;78618.38;;;-146.39;100.00
40460;BME280;26164;51.138;16.952;2023-01-28T05:36:19;78632.69;;;-146.39;100.00
40460;BME280;26164;51.138;16.952;2023-01-28T05:38:45;78630.66;;;-146.39;100.00
40460;BME280;26164;51.138;16.952;2023-01-28T05:41:11;78628.59;;;-146.39;100.00
40460;BME280;26164;51.138;16.952;2023-01-28T05:43:38;78630.66;;;-146.39;100.00
40460;BME280;26164;51.138;16.952;2023-01-28T05:46:16;78626.56;;;-146.39;100.00
40460;BME280;26164;51.138;16.952;2023-01-28T05:49:18;78638.81;;;-146.39;100.00
40460;BME280;26164;51.138;16.952;2023-01-28T05:51:47;78642.91;;;-146.39;100.00
40460;BME280;26164;51.138;16.952;2023-01-28T05:54:16;78630.66;;;-146.39;100.00
40460;BME280;26164;51.138;16.952;2023-01-28T05:56:43;78638.81;;;-146.39;100.00
40460;BME280;26164;51.138;16.952;2023-01-28T05:59:12;78638.81;;;-146.39;100.00
40460;BME280;26164;51.138;16.952;2023-01-28T06:01:40;78636.78;;;-146.39;100.00
40460;BME280;26164;51.138;16.952;2023-01-28T06:04:07;78638.81;;;-146.39;100.00
40460;BME280;26164;51.138;16.952;2023-01-28T06:06:33;78649.03;;;-146.39;100.00
40460;BME280;26164;51.138;16.952;2023-01-28T06:09:00;78653.13;;;-146.39;100.00
40460;BME280;26164;51.138;16.952;2023-01-28T06:11:29;78638.81;;;-146.39;100.00
40460;BME280;26164;51.138;16.952;2023-01-28T06:13:59;78651.06;;;-146.39;100.00
40460;BME280;26164;51.138;16.952;2023-01-28T06:16:31;78649.03;;;-146.39;100.00
40460;BME280;26164;51.138;16.952;2023-01-28T06:19:15;78659.25;;;-146.39;100.00
40460;BME280;26164;51.138;16.952;2023-01-28T06:21:42;78649.03;;;-146.39;100.00
40460;BME280;26164;51.138;16.952;2023-01-28T06:24:08;78651.06;;;-146.39;100.00
40460;BME280;26164;51.138;16.952;2023-01-28T06:26:34;78657.19;;;-146.39;100.00
40460;BME280;26164;51.138;16.952;2023-01-28T06:29:00;78651.06;;;-146.39;100.00
40460;BME280;26164;51.138;16.952;2023-01-28T06:31:29;78651.06;;;-146.39;100.00
40460;BME280;26164;51.138;16.952;2023-01-28T06:33:55;78659.25;;;-146.39;100.00
40460;BME280;26164;51.138;16.952;2023-01-28T06:36:22;78663.31;;;-146.39;100.00
40460;BME280;26164;51.138;16.952;2023-01-28T06:38:48;78663.31;;;-146.39;100.00
40460;BME280;26164;51.138;16.952;2023-01-28T06:41:17;78655.16;;;-146.39;100.00
40460;BME280;26164;51.138;16.952;2023-01-28T06:43:43;78653.13;;;-146.39;100.00
40460;BME280;26164;51.138;16.952;2023-01-28T06:46:09;78667.41;;;-146.39;100.00
40460;BME280;26164;51.138;16.952;2023-01-28T06:48:35;78667.41;;;-146.39;100.00
40460;BME280;26164;51.138;16.952;2023-01-28T06:51:01;78667.41;;;-146.39;100.00
40460;BME280;26164;51.138;16.952;2023-01-28T06:53:27;78667.41;;;-146.39;100.00
40460;BME280;26164;51.138;16.952;2023-01-28T06:55:53;78669.47;;;-146.39;100.00
40460;BME280;26164;51.138;16.952;2023-01-28T06:58:18;78683.75;;;-146.39;100.00
40460;BME280;26164;51.138;16.952;2023-01-28T07:00:48;78687.84;;;-146.39;100.00
40460;BME280;26164;51.138;16.952;2023-01-28T07:03:14;78667.41;;;-146.39;100.00
40460;BME280;26164;51.138;16.952;2023-01-28T07:05:40;78683.75;;;-146.39;100.00
40460;BME280;26164;51.138;16.952;2023-01-28T07:08:05;78679.66;;;-146.39;100.00
40460;BME280;26164;51.138;16.952;2023-01-28T07:10:31;78675.59;;;-146.39;100.00
40460;BME280;26164;51.138;16.952;2023-01-28T07:12:57;78691.91;;;-146.39;100.00
40460;BME280;26164;51.138;16.952;2023-01-28T07:15:26;78683.75;;;-146.39;100.00
40460;BME280;26164;51.138;16.952;2023-01-28T07:17:52;78691.91;;;-146.39;100.00
40460;BME280;26164;51.138;16.952;2023-01-28T07:20:18;78691.91;;;-146.39;100.00
40460;BME280;26164;51.138;16.952;2023-01-28T07:22:44;78696.00;;;-146.39;100.00
40460;BME280;26164;51.138;16.952;2023-01-28T07:25:11;78702.13;;;-146.39;100.00
40460;BME280;26164;51.138;16.952;2023-01-28T07:27:38;78696.00;;;-146.39;100.00
40460;BME280;26164;51.138;16.952;2023-01-28T07:30:04;78704.19;;;-146.39;100.00
40460;BME280;26164;51.138;16.952;2023-01-28T07:32:31;78712.34;;;-146.39;100.00
40460;BME280;26164;51.138;16.952;2023-01-28T07:34:57;78708.25;;;-146.39;100.00
40460;BME280;26164;51.138;16.952;2023-01-28T07:37:23;78712.34;;;-146.39;100.00
40460;BME280;26164;51.138;16.952;2023-01-28T07:39:51;78712.34;;;-146.39;100.00
40460;BME280;26164;51.138;16.952;2023-01-28T07:42:16;78714.38;;;-146.39;100.00
40460;BME280;26164;51.138;16.952;2023-01-28T07:44:49;78718.47;;;-146.39;100.00
40460;BME280;26164;51.138;16.952;2023-01-28T07:47:22;78716.44;;;-146.39;100.00
40460;BME280;26164;51.138;16.952;2023-01-28T07:49:51;78726.66;;;-146.39;100.00
40460;BME280;26164;51.138;16.952;2023-01-28T07:52:17;78712.34;;;-146.39;100.00
40460;BME280;26164;51.138;16.952;2023-01-28T07:54:44;78716.44;;;-146.39;100.00
40460;BME280;26164;51.138;16.952;2023-01-28T07:57:10;78720.53;;;-146.39;100.00
40460;BME280;26164;51.138;16.952;2023-01-28T07:59:36;78718.47;;;-146.39;100.00
40460;BME280;26164;51.138;16.952;2023-01-28T08:02:02;78716.44;;;-146.39;100.00
40460;BME280;26164;51.138;16.952;2023-01-28T08:04:28;78716.44;;;-146.39;100.00
40460;BME280;26164;51.138;16.952;2023-01-28T08:06:53;78718.47;;;-146.39;100.00
40460;BME280;26164;51.138;16.952;2023-01-28T08:09:23;78716.44;;;-146.39;100.00
40460;BME280;26164;51.138;16.952;2023-01-28T08:11:52;78728.69;;;-146.39;100.00
40460;BME280;26164;51.138;16.952;2023-01-28T08:14:18;78724.59;;;-146.39;100.00
40460;BME280;26164;51.138;16.952;2023-01-28T08:16:44;78724.59;;;-146.39;100.00
40460;BME280;26164;51.138;16.952;2023-01-28T08:19:10;78728.69;;;-146.39;100.00
40460;BME280;26164;51.138;16.952;2023-01-28T08:21:38;78728.69;;;-146.39;100.00
40460;BME280;26164;51.138;16.952;2023-01-28T08:24:04;78732.78;;;-146.39;100.00
40460;BME280;26164;51.138;16.952;2023-01-28T08:26:33;78732.78;;;-146.39;100.00
40460;BME280;26164;51.138;16.952;2023-01-28T08:28:59;78730.72;;;-146.39;100.00
40460;BME280;26164;51.138;16.952;2023-01-28T08:31:26;78734.81;;;-146.39;100.00
40460;BME280;26164;51.138;16.952;2023-01-28T08:33:54;78734.81;;;-146.39;100.00
40460;BME280;26164;51.138;16.952;2023-01-28T08:36:19;78728.69;;;-146.39;100.00
40460;BME280;26164;51.138;16.952;2023-01-28T08:38:54;78728.69;;;-146.39;100.00
40460;BME280;26164;51.138;16.952;2023-01-28T08:41:20;78724.59;;;-146.39;100.00
40460;BME280;26164;51.138;16.952;2023-01-28T08:43:47;78720.53;;;-146.39;100.00
40460;BME280;26164;51.138;16.952;2023-01-28T08:46:14;78716.44;;;-146.39;100.00
40460;BME280;26164;51.138;16.952;2023-01-28T08:48:40;78728.69;;;-146.39;100.00
40460;BME280;26164;51.138;16.952;2023-01-28T08:51:06;78732.78;;;-146.39;100.00
40460;BME280;26164;51.138;16.952;2023-01-28T08:53:35;78728.69;;;-146.39;100.00
40460;BME280;26164;51.138;16.952;2023-01-28T08:56:00;78749.13;;;-146.39;100.00
40460;BME280;26164;51.138;16.952;2023-01-28T08:58:26;78732.78;;;-146.39;100.00
40460;BME280;26164;51.138;16.952;2023-01-28T09:00:57;78740.94;;;-146.39;100.00
40460;BME280;26164;51.138;16.952;2023-01-28T09:03:23;78743.00;;;-146.39;100.00
40460;BME280;26164;51.138;16.952;2023-01-28T09:05:48;78745.03;;;-146.39;100.00
40460;BME280;26164;51.138;16.952;2023-01-28T09:08:15;78734.81;;;-146.39;100.00
40460;BME280;26164;51.138;16.952;2023-01-28T09:10:41;78738.91;;;-146.39;100.00
40460;BME280;26164;51.138;16.952;2023-01-28T09:13:10;78736.88;;;-146.39;100.00
40460;BME280;26164;51.138;16.952;2023-01-28T09:15:43;78728.69;;;-146.39;100.00
40460;BME280;26164;51.138;16.952;2023-01-28T09:18:09;78749.13;;;-146.39;100.00
40460;BME280;26164;51.138;16.952;2023-01-28T09:20:36;78761.38;;;-146.39;100.00
40460;BME280;26164;51.138;16.952;2023-01-28T09:23:03;78765.47;;;-146.39;100.00
40460;BME280;26164;51.138;16.952;2023-01-28T09:25:29;78757.28;;;-146.39;100.00
40460;BME280;26164;51.138;16.952;2023-01-28T09:27:57;78749.13;;;-146.39;100.00
40460;BME280;26164;51.138;16.952;2023-01-28T09:30:23;78761.38;;;-146.39;100.00
40460;BME280;26164;51.138;16.952;2023-01-28T09:32:52;78767.50;;;-146.39;100.00
40460;BME280;26164;51.138;16.952;2023-01-28T09:35:18;78771.59;;;-146.39;100.00
40460;BME280;26164;51.138;16.952;2023-01-28T09:37:45;78781.78;;;-146.39;100.00
40460;BME280;26164;51.138;16.952;2023-01-28T09:40:18;78763.41;;;-146.39;100.00
40460;BME280;26164;51.138;16.952;2023-01-28T09:43:04;78761.38;;;-146.39;100.00
40460;BME280;26164;51.138;16.952;2023-01-28T09:45:39;78757.28;;;-146.39;100.00
40460;BME280;26164;51.138;16.952;2023-01-28T09:48:10;78765.47;;;-146.39;100.00
40460;BME280;26164;51.138;16.952;2023-01-28T09:50:47;78769.53;;;-146.39;100.00
40460;BME280;26164;51.138;16.952;2023-01-28T09:53:20;78781.78;;;-146.39;100.00
40460;BME280;26164;51.138;16.952;2023-01-28T09:55:54;78802.22;;;-146.39;100.00
40460;BME280;26164;51.138;16.952;2023-01-28T09:58:21;78798.13;;;-146.39;100.00
40460;BME280;26164;51.138;16.952;2023-01-28T10:01:20;78794.06;;;-146.39;100.00
40460;BME280;26164;51.138;16.952;2023-01-28T10:04:02;78802.22;;;-146.39;100.00
40460;BME280;26164;51.138;16.952;2023-01-28T10:12:12;78785.88;;;-146.39;100.00
40460;BME280;26164;51.138;16.952;2023-01-28T10:14:49;78777.72;;;-146.39;100.00
40460;BME280;26164;51.138;16.952;2023-01-28T10:17:29;78745.03;;;-146.39;100.00
40460;BME280;26164;51.138;16.952;2023-01-28T10:22:41;78759.34;;;-146.39;100.00
40460;BME280;26164;51.138;16.952;2023-01-28T10:25:16;78765.47;;;-146.39;100.00
40460;BME280;26164;51.138;16.952;2023-01-28T10:27:44;78728.69;;;-146.39;100.00
40460;BME280;26164;51.138;16.952;2023-01-28T10:30:20;78761.38;;;-146.39;100.00
40460;BME280;26164;51.138;16.952;2023-01-28T10:35:36;78777.72;;;-146.39;100.00
40460;BME280;26164;51.138;16.952;2023-01-28T10:38:05;78761.38;;;-146.39;100.00
40460;BME280;26164;51.138;16.952;2023-01-28T10:40:34;78769.53;;;-146.39;100.00
40460;BME280;26164;51.138;16.952;2023-01-28T10:43:00;78767.50;;;-146.39;100.00
40460;BME280;26164;51.138;16.952;2023-01-28T10:45:33;78763.41;;;-146.39;100.00
40460;BME280;26164;51.138;16.952;2023-01-28T10:48:23;78765.47;;;-146.39;100.00
40460;BME280;26164;51.138;16.952;2023-01-28T10:50:53;78753.19;;;-146.39;100.00
40460;BME280;26164;51.138;16.952;2023-01-28T10:53:39;78734.81;;;-146.39;100.00
40460;BME280;26164;51.138;16.952;2023-01-28T10:56:17;78765.47;;;-146.39;100.00
40460;BME280;26164;51.138;16.952;2023-01-28T10:59:06;78749.13;;;-146.39;100.00
40460;BME280;26164;51.138;16.952;2023-01-28T11:01:49;78763.41;;;-146.39;100.00
40460;BME280;26164;51.138;16.952;2023-01-28T11:04:22;78753.19;;;-146.39;100.00
40460;BME280;26164;51.138;16.952;2023-01-28T11:06:53;78736.88;;;-146.39;100.00
40460;BME280;26164;51.138;16.952;2023-01-28T11:09:21;78747.06;;;-146.39;100.00
40460;BME280;26164;51.138;16.952;2023-01-28T11:11:48;78732.78;;;-146.39;100.00
40460;BME280;26164;51.138;16.952;2023-01-28T11:14:25;78728.69;;;-146.39;100.00
40460;BME280;26164;51.138;16.952;2023-01-28T11:16:55;78734.81;;;-146.39;100.00
40460;BME280;26164;51.138;16.952;2023-01-28T11:19:28;78749.13;;;-146.39;100.00
40460;BME280;26164;51.138;16.952;2023-01-28T11:21:57;78736.88;;;-146.39;100.00
40460;BME280;26164;51.138;16.952;2023-01-28T11:24:31;78718.47;;;-146.39;100.00
40460;BME280;26164;51.138;16.952;2023-01-28T11:27:12;78722.56;;;-146.39;100.00
40460;BME280;26164;51.138;16.952;2023-01-28T11:29:42;78728.69;;;-146.39;100.00
40460;BME280;26164;51.138;16.952;2023-01-28T11:32:23;78722.56;;;-146.39;100.00
40460;BME280;26164;51.138;16.952;2023-01-28T11:35:04;78720.53;;;-146.39;100.00
40460;BME280;26164;51.138;16.952;2023-01-28T11:37:31;78655.16;;;-146.39;100.00
40460;BME280;26164;51.138;16.952;2023-01-28T11:42:45;78679.66;;;-146.39;100.00
40460;BME280;26164;51.138;16.952;2023-01-28T11:45:24;78734.81;;;-146.39;100.00
40460;BME280;26164;51.138;16.952;2023-01-28T11:59:33;78732.78;;;-146.39;100.00
40460;BME280;26164;51.138;16.952;2023-01-28T12:05:15;78747.06;;;-146.39;100.00
40460;BME280;26164;51.138;16.952;2023-01-28T12:07:51;78732.78;;;-146.39;100.00
40460;BME280;26164;51.138;16.952;2023-01-28T12:10:43;78736.88;;;-146.39;100.00
40460;BME280;26164;51.138;16.952;2023-01-28T12:13:31;78732.78;;;-146.39;100.00
40460;BME280;26164;51.138;16.952;2023-01-28T12:16:25;78714.38;;;-146.39;100.00
40460;BME280;26164;51.138;16.952;2023-01-28T12:22:12;78753.19;;;-146.39;100.00
40460;BME280;26164;51.138;16.952;2023-01-28T12:27:50;78740.94;;;-146.39;100.00
40460;BME280;26164;51.138;16.952;2023-01-28T12:36:12;78691.91;;;-146.39;100.00
40460;BME280;26164;51.138;16.952;2023-01-28T12:39:02;78724.59;;;-146.39;100.00
40460;BME280;26164;51.138;16.952;2023-01-28T12:41:39;78696.00;;;-146.39;100.00
40460;BME280;26164;51.138;16.952;2023-01-28T12:44:12;78677.63;;;-146.39;100.00
40460;BME280;26164;51.138;16.952;2023-01-28T12:46:47;78667.41;;;-146.39;100.00
40460;BME280;26164;51.138;16.952;2023-01-28T12:49:21;78681.72;;;-146.39;100.00
40460;BME280;26164;51.138;16.952;2023-01-28T12:51:58;78700.09;;;-146.39;100.00
40460;BME280;26164;51.138;16.952;2023-01-28T12:54:40;78712.34;;;-146.39;100.00
40460;BME280;26164;51.138;16.952;2023-01-28T12:57:28;78708.25;;;-146.39;100.00
40460;BME280;26164;51.138;16.952;2023-01-28T13:00:38;78704.19;;;-146.39;100.00
40460;BME280;26164;51.138;16.952;2023-01-28T13:02:52;78710.31;;;-146.39;100.00
40460;BME280;26164;51.138;16.952;2023-01-28T13:05:30;78700.09;;;-146.39;100.00
40460;BME280;26164;51.138;16.952;2023-01-28T13:08:09;78712.34;;;-146.39;100.00
40460;BME280;26164;51.138;16.952;2023-01-28T13:10:42;78691.91;;;-146.39;100.00
40460;BME280;26164;51.138;16.952;2023-01-28T13:13:19;78687.84;;;-146.39;100.00
40460;BME280;26164;51.138;16.952;2023-01-28T13:15:47;78716.44;;;-146.39;100.00
40460;BME280;26164;51.138;16.952;2023-01-28T13:29:19;78708.25;;;-146.39;100.00
40460;BME280;26164;51.138;16.952;2023-01-28T13:31:48;78687.84;;;-146.39;100.00
40460;BME280;26164;51.138;16.952;2023-01-28T13:37:12;78700.09;;;-146.39;100.00
40460;BME280;26164;51.138;16.952;2023-01-28T13:39:45;78712.34;;;-146.39;100.00
40460;BME280;26164;51.138;16.952;2023-01-28T13:42:28;78698.06;;;-146.39;100.00
40460;BME280;26164;51.138;16.952;2023-01-28T13:44:55;78714.38;;;-146.39;100.00
40460;BME280;26164;51.138;16.952;2023-01-28T13:47:26;78687.84;;;-146.39;100.00
40460;BME280;26164;51.138;16.952;2023-01-28T13:50:01;78700.09;;;-146.39;100.00
40460;BME280;26164;51.138;16.952;2023-01-28T13:52:44;78712.34;;;-146.39;100.00
40460;BME280;26164;51.138;16.952;2023-01-28T14:08:51;78700.09;;;-146.39;100.00